sensor_id;sensor_type;location;lat;lon;timestamp;pressure;altitude;pressure_sealevel;temperature;humidity
72110;BME280;59983;52.010;5.420;2024-01-06T00:00:07;100275.16;;;19.23;66.39
72110;BME280;59983;52.010;5.420;2024-01-06T00:02:34;100270.88;;;19.22;66.27
72110;BME280;59983;52.010;5.420;2024-01-06T00:05:00;100284.63;;;19.22;66.42
72110;BME280;59983;52.010;5.420;2024-01-06T00:07:27;100283.06;;;19.21;66.34
72110;BME280;59983;52.010;5.420;2024-01-06T00:09:53;100290.19;;;19.18;66.29
72110;BME280;59983;52.010;5.420;2024-01-06T00:12:20;100298.44;;;19.18;66.31
72110;BME280;59983;52.010;5.420;2024-01-06T00:14:47;100298.81;;;19.17;66.32
72110;BME280;59983;52.010;5.420;2024-01-06T00:17:13;100305.53;;;19.16;66.12
72110;BME280;59983;52.010;5.420;2024-01-06T00:19:40;100301.22;;;19.15;66.13
72110;BME280;59983;52.010;5.420;2024-01-06T00:22:07;100309.47;;;19.15;66.18
72110;BME280;59983;52.010;5.420;2024-01-06T00:24:34;100316.94;;;19.14;66.16
72110;BME280;59983;52.010;5.420;2024-01-06T00:27:00;100313.84;;;19.12;66.10
72110;BME280;59983;52.010;5.420;2024-01-06T00:29:27;100327.59;;;19.12;65.84
72110;BME280;59983;52.010;5.420;2024-01-06T00:31:54;100317.78;;;19.11;65.83
72110;BME280;59983;52.010;5.420;2024-01-06T00:34:20;100326.81;;;19.12;65.98
72110;BME280;59983;52.010;5.420;2024-01-06T00:36:47;100320.94;;;19.10;65.70
72110;BME280;59983;52.010;5.420;2024-01-06T00:39:13;100316.66;;;19.09;65.67
72110;BME280;59983;52.010;5.420;2024-01-06T00:41:40;100325.28;;;19.07;65.68
72110;BME280;59983;52.010;5.420;2024-01-06T00:44:06;100326.88;;;19.08;65.73
72110;BME280;59983;52.010;5.420;2024-01-06T00:46:33;100324.16;;;19.05;65.64
72110;BME280;59983;52.010;5.420;2024-01-06T00:49:00;100331.22;;;19.06;65.51
72110;BME280;59983;52.010;5.420;2024-01-06T00:51:27;100328.88;;;19.04;65.44
72110;BME280;59983;52.010;5.420;2024-01-06T00:53:53;100335.56;;;19.03;65.51
72110;BME280;59983;52.010;5.420;2024-01-06T00:56:20;100332.81;;;19.03;65.51
72110;BME280;59983;52.010;5.420;2024-01-06T00:58:46;100339.50;;;19.02;65.27
72110;BME280;59983;52.010;5.420;2024-01-06T01:01:13;100336.78;;;19.02;65.37
72110;BME280;59983;52.010;5.420;2024-01-06T01:03:40;100343.06;;;18.99;65.42
72110;BME280;59983;52.010;5.420;2024-01-06T01:06:06;100347.03;;;18.98;65.24
72110;BME280;59983;52.010;5.420;2024-01-06T01:08:33;100347.41;;;19.00;65.24
72110;BME280;59983;52.010;5.420;2024-01-06T01:10:59;100349.00;;;18.98;65.26
72110;BME280;59983;52.010;5.420;2024-01-06T01:13:26;100350.97;;;18.97;65.19
72110;BME280;59983;52.010;5.420;2024-01-06T01:15:53;100358.44;;;18.96;65.22
72110;BME280;59983;52.010;5.420;2024-01-06T01:18:19;100361.59;;;18.95;65.22
72110;BME280;59983;52.010;5.420;2024-01-06T01:20:46;100356.53;;;18.93;65.01
72110;BME280;59983;52.010;5.420;2024-01-06T01:23:12;100362.78;;;18.94;64.99
72110;BME280;59983;52.010;5.420;2024-01-06T01:25:39;100358.50;;;18.93;64.91
72110;BME280;59983;52.010;5.420;2024-01-06T01:28:06;100371.88;;;18.91;64.88
72110;BME280;59983;52.010;5.420;2024-01-06T01:30:33;100371.06;;;18.90;64.78
72110;BME280;59983;52.010;5.420;2024-01-06T01:32:59;100373.47;;;18.88;64.73
72110;BME280;59983;52.010;5.420;2024-01-06T01:35:26;100386.00;;;18.89;64.76
72110;BME280;59983;52.010;5.420;2024-01-06T01:37:53;100382.47;;;18.89;64.76
72110;BME280;59983;52.010;5.420;2024-01-06T01:40:19;100383.31;;;18.86;64.67
72110;BME280;59983;52.010;5.420;2024-01-06T01:42:46;100389.59;;;18.86;64.60
72110;BME280;59983;52.010;5.420;2024-01-06T01:45:13;100399.81;;;18.86;64.73
72110;BME280;59983;52.010;5.420;2024-01-06T01:47:39;100395.91;;;18.83;64.40
72110;BME280;59983;52.010;5.420;2024-01-06T01:50:07;100407.69;;;18.84;64.67
72110;BME280;59983;52.010;5.420;2024-01-06T01:52:35;100428.91;;;18.83;64.59
72110;BME280;59983;52.010;5.420;2024-01-06T01:55:03;100426.56;;;18.82;64.45
72110;BME280;59983;52.010;5.420;2024-01-06T01:57:30;100419.09;;;18.82;64.49
72110;BME280;59983;52.010;5.420;2024-01-06T01:59:57;100421.06;;;18.82;64.44
72110;BME280;59983;52.010;5.420;2024-01-06T02:02:23;100423.44;;;18.80;64.54
72110;BME280;59983;52.010;5.420;2024-01-06T02:04:50;100426.97;;;18.80;64.50
72110;BME280;59983;52.010;5.420;2024-01-06T02:07:17;100423.06;;;18.78;64.45
72110;BME280;59983;52.010;5.420;2024-01-06T02:09:43;100431.31;;;18.78;64.50
72110;BME280;59983;52.010;5.420;2024-01-06T02:12:10;100438.00;;;18.77;64.28
72110;BME280;59983;52.010;5.420;2024-01-06T02:14:37;100449.78;;;18.77;64.18
72110;BME280;59983;52.010;5.420;2024-01-06T02:17:03;100451.75;;;18.77;64.31
72110;BME280;59983;52.010;5.420;2024-01-06T02:19:30;100446.66;;;18.75;64.16
72110;BME280;59983;52.010;5.420;2024-01-06T02:21:57;100451.78;;;18.73;64.18
72110;BME280;59983;52.010;5.420;2024-01-06T02:24:23;100452.97;;;18.72;64.24
72110;BME280;59983;52.010;5.420;2024-01-06T02:26:50;100457.28;;;18.73;64.20
72110;BME280;59983;52.010;5.420;2024-01-06T02:29:17;100465.13;;;18.71;64.24
72110;BME280;59983;52.010;5.420;2024-01-06T02:31:43;100468.66;;;18.72;64.03
72110;BME280;59983;52.010;5.420;2024-01-06T02:34:10;100459.66;;;18.71;64.12
72110;BME280;59983;52.010;5.420;2024-01-06T02:36:37;100460.47;;;18.68;64.07
72110;BME280;59983;52.010;5.420;2024-01-06T02:39:04;100469.06;;;18.70;64.15
72110;BME280;59983;52.010;5.420;2024-01-06T02:41:30;100465.19;;;18.67;64.07
72110;BME280;59983;52.010;5.420;2024-01-06T02:43:57;100469.91;;;18.67;64.04
72110;BME280;59983;52.010;5.420;2024-01-06T02:46:23;100465.59;;;18.66;64.05
72110;BME280;59983;52.010;5.420;2024-01-06T02:48:50;100471.88;;;18.66;63.84
72110;BME280;59983;52.010;5.420;2024-01-06T02:51:17;100466.00;;;18.64;63.80
72110;BME280;59983;52.010;5.420;2024-01-06T02:53:43;100466.00;;;18.64;63.87
72110;BME280;59983;52.010;5.420;2024-01-06T02:56:11;100477.78;;;18.61;63.83
72110;BME280;59983;52.010;5.420;2024-01-06T02:58:38;100480.88;;;18.63;63.89
72110;BME280;59983;52.010;5.420;2024-01-06T03:01:05;100479.31;;;18.62;63.85
72110;BME280;59983;52.010;5.420;2024-01-06T03:03:32;100487.97;;;18.61;63.88
72110;BME280;59983;52.010;5.420;2024-01-06T03:05:59;100491.50;;;18.61;63.69
72110;BME280;59983;52.010;5.420;2024-01-06T03:08:26;100493.88;;;18.59;63.80
72110;BME280;59983;52.010;5.420;2024-01-06T03:10:53;100496.63;;;18.59;63.85
72110;BME280;59983;52.010;5.420;2024-01-06T03:13:20;100499.38;;;18.59;64.06
72110;BME280;59983;52.010;5.420;2024-01-06T03:15:46;100494.31;;;18.58;63.86
72110;BME280;59983;52.010;5.420;2024-01-06T03:18:13;100501.34;;;18.59;63.77
72110;BME280;59983;52.010;5.420;2024-01-06T03:20:40;100503.75;;;18.57;63.88
72110;BME280;59983;52.010;5.420;2024-01-06T03:23:06;100507.69;;;18.56;63.92
72110;BME280;59983;52.010;5.420;2024-01-06T03:25:33;100513.94;;;18.56;63.92
72110;BME280;59983;52.010;5.420;2024-01-06T03:28:00;100517.88;;;18.55;63.74
72110;BME280;59983;52.010;5.420;2024-01-06T03:30:26;100512.78;;;18.54;63.54
72110;BME280;59983;52.010;5.420;2024-01-06T03:32:53;100512.00;;;18.53;63.58
72110;BME280;59983;52.010;5.420;2024-01-06T03:35:19;100519.47;;;18.53;63.64
72110;BME280;59983;52.010;5.420;2024-01-06T03:37:46;100530.44;;;18.53;63.63
72110;BME280;59983;52.010;5.420;2024-01-06T03:40:13;100528.88;;;18.52;63.64
72110;BME280;59983;52.010;5.420;2024-01-06T03:42:39;100535.56;;;18.51;63.49
72110;BME280;59983;52.010;5.420;2024-01-06T03:45:06;100544.22;;;18.49;63.42
72110;BME280;59983;52.010;5.420;2024-01-06T03:47:33;100545.00;;;18.50;63.26
72110;BME280;59983;52.010;5.420;2024-01-06T03:50:00;100548.94;;;18.49;63.32
72110;BME280;59983;52.010;5.420;2024-01-06T03:52:26;100556.41;;;18.48;63.54
72110;BME280;59983;52.010;5.420;2024-01-06T03:54:53;100553.66;;;18.48;63.47
72110;BME280;59983;52.010;5.420;2024-01-06T03:57:19;100554.84;;;18.47;63.47
72110;BME280;59983;52.010;5.420;2024-01-06T03:59:46;100553.25;;;18.46;63.58
72110;BME280;59983;52.010;5.420;2024-01-06T04:02:12;100559.94;;;18.45;63.22
72110;BME280;59983;52.010;5.420;2024-01-06T04:04:39;100555.63;;;18.44;63.33
72110;BME280;59983;52.010;5.420;2024-01-06T04:07:05;100563.09;;;18.44;63.54
72110;BME280;59983;52.010;5.420;2024-01-06T04:09:33;100569.38;;;18.44;63.30
72110;BME280;59983;52.010;5.420;2024-01-06T04:11:59;100570.56;;;18.43;63.24
72110;BME280;59983;52.010;5.420;2024-01-06T04:14:27;100570.19;;;18.41;63.53
72110;BME280;59983;52.010;5.420;2024-01-06T04:16:54;100567.44;;;18.41;63.32
72110;BME280;59983;52.010;5.420;2024-01-06T04:19:23;100573.34;;;18.39;63.12
72110;BME280;59983;52.010;5.420;2024-01-06T04:21:50;100571.38;;;18.40;63.33
72110;BME280;59983;52.010;5.420;2024-01-06T04:24:17;100579.25;;;18.38;63.01
72110;BME280;59983;52.010;5.420;2024-01-06T04:26:44;100582.00;;;18.38;63.11
72110;BME280;59983;52.010;5.420;2024-01-06T04:29:12;100574.91;;;18.37;63.16
72110;BME280;59983;52.010;5.420;2024-01-06T04:31:40;100584.72;;;18.38;63.22
72110;BME280;59983;52.010;5.420;2024-01-06T04:34:07;100582.78;;;18.35;63.12
72110;BME280;59983;52.010;5.420;2024-01-06T04:36:34;100585.53;;;18.35;63.11
72110;BME280;59983;52.010;5.420;2024-01-06T04:39:01;100591.00;;;18.35;63.08
72110;BME280;59983;52.010;5.420;2024-01-06T04:41:27;100584.38;;;18.32;63.16
72110;BME280;59983;52.010;5.420;2024-01-06T04:43:54;100594.56;;;18.32;63.17
72110;BME280;59983;52.010;5.420;2024-01-06T04:46:20;100597.31;;;18.32;63.08
72110;BME280;59983;52.010;5.420;2024-01-06T04:48:47;100596.94;;;18.30;63.01
72110;BME280;59983;52.010;5.420;2024-01-06T04:51:14;100601.25;;;18.31;63.03
72110;BME280;59983;52.010;5.420;2024-01-06T04:53:41;100600.47;;;18.30;63.09
72110;BME280;59983;52.010;5.420;2024-01-06T04:56:08;100604.41;;;18.29;62.95
72110;BME280;59983;52.010;5.420;2024-01-06T04:58:35;100598.53;;;18.27;63.10
72110;BME280;59983;52.010;5.420;2024-01-06T05:01:01;100602.03;;;18.28;63.11
72110;BME280;59983;52.010;5.420;2024-01-06T05:03:28;100609.50;;;18.27;63.03
72110;BME280;59983;52.010;5.420;2024-01-06T05:05:55;100610.69;;;18.26;63.03
72110;BME280;59983;52.010;5.420;2024-01-06T05:08:22;100613.06;;;18.24;62.99
72110;BME280;59983;52.010;5.420;2024-01-06T05:10:49;100616.59;;;18.25;63.00
72110;BME280;59983;52.010;5.420;2024-01-06T05:13:16;100622.50;;;18.23;63.05
72110;BME280;59983;52.010;5.420;2024-01-06T05:15:44;100622.09;;;18.25;62.74
72110;BME280;59983;52.010;5.420;2024-01-06T05:18:10;100626.00;;;18.24;62.88
72110;BME280;59983;52.010;5.420;2024-01-06T05:20:37;100624.47;;;18.23;62.78
72110;BME280;59983;52.010;5.420;2024-01-06T05:23:04;100628.38;;;18.22;63.12
72110;BME280;59983;52.010;5.420;2024-01-06T05:25:30;100638.59;;;18.21;62.76
72110;BME280;59983;52.010;5.420;2024-01-06T05:27:57;100646.06;;;18.21;62.85
72110;BME280;59983;52.010;5.420;2024-01-06T05:30:23;100648.00;;;18.20;62.72
72110;BME280;59983;52.010;5.420;2024-01-06T05:32:50;100642.91;;;18.19;62.66
72110;BME280;59983;52.010;5.420;2024-01-06T05:35:17;100654.28;;;18.17;62.62
72110;BME280;59983;52.010;5.420;2024-01-06T05:37:44;100646.06;;;18.17;62.68
72110;BME280;59983;52.010;5.420;2024-01-06T05:40:10;100646.84;;;18.18;62.49
72110;BME280;59983;52.010;5.420;2024-01-06T05:42:38;100645.69;;;18.15;62.57
72110;BME280;59983;52.010;5.420;2024-01-06T05:45:05;100659.78;;;18.17;62.68
72110;BME280;59983;52.010;5.420;2024-01-06T05:47:31;100650.38;;;18.15;62.44
72110;BME280;59983;52.010;5.420;2024-01-06T05:49:59;100643.34;;;18.14;62.55
72110;BME280;59983;52.010;5.420;2024-01-06T05:52:25;100650.00;;;18.13;62.36
72110;BME280;59983;52.010;5.420;2024-01-06T05:54:52;100658.25;;;18.13;62.47
72110;BME280;59983;52.010;5.420;2024-01-06T05:57:19;100662.19;;;18.11;62.39
72110;BME280;59983;52.010;5.420;2024-01-06T05:59:45;100665.72;;;18.12;62.43
72110;BME280;59983;52.010;5.420;2024-01-06T06:02:12;100662.56;;;18.10;62.41
72110;BME280;59983;52.010;5.420;2024-01-06T06:04:39;100677.06;;;18.10;62.39
72110;BME280;59983;52.010;5.420;2024-01-06T06:07:05;100683.75;;;18.09;62.29
72110;BME280;59983;52.010;5.420;2024-01-06T06:09:32;100678.66;;;18.08;62.23
72110;BME280;59983;52.010;5.420;2024-01-06T06:12:01;100688.06;;;18.07;62.29
72110;BME280;59983;52.010;5.420;2024-01-06T06:14:27;100691.59;;;18.07;62.17
72110;BME280;59983;52.010;5.420;2024-01-06T06:16:56;100692.78;;;18.06;62.37
72110;BME280;59983;52.010;5.420;2024-01-06T06:19:23;100694.75;;;18.06;62.40
72110;BME280;59983;52.010;5.420;2024-01-06T06:21:49;100695.94;;;18.05;62.37
72110;BME280;59983;52.010;5.420;2024-01-06T06:24:16;100701.81;;;18.03;62.38
72110;BME280;59983;52.010;5.420;2024-01-06T06:26:43;100703.38;;;18.04;62.22
72110;BME280;59983;52.010;5.420;2024-01-06T06:29:09;100708.50;;;18.02;62.35
72110;BME280;59983;52.010;5.420;2024-01-06T06:31:36;100715.94;;;18.02;62.17
72110;BME280;59983;52.010;5.420;2024-01-06T06:34:02;100712.41;;;18.01;62.17
72110;BME280;59983;52.010;5.420;2024-01-06T06:36:34;100716.31;;;18.00;62.03
72110;BME280;59983;52.010;5.420;2024-01-06T06:39:01;100733.19;;;17.99;62.07
72110;BME280;59983;52.010;5.420;2024-01-06T06:41:28;100742.22;;;17.99;61.99
72110;BME280;59983;52.010;5.420;2024-01-06T06:43:54;100744.19;;;17.99;61.98
72110;BME280;59983;52.010;5.420;2024-01-06T06:46:21;100752.41;;;17.99;62.09
72110;BME280;59983;52.010;5.420;2024-01-06T06:48:47;100756.34;;;17.98;62.10
72110;BME280;59983;52.010;5.420;2024-01-06T06:51:14;100765.75;;;17.97;61.88
72110;BME280;59983;52.010;5.420;2024-01-06T06:53:40;100768.13;;;17.95;61.86
72110;BME280;59983;52.010;5.420;2024-01-06T06:56:07;100766.16;;;17.95;61.78
72110;BME280;59983;52.010;5.420;2024-01-06T06:58:34;100769.31;;;17.94;61.99
72110;BME280;59983;52.010;5.420;2024-01-06T07:01:00;100771.25;;;17.93;61.73
72110;BME280;59983;52.010;5.420;2024-01-06T07:03:27;100772.03;;;17.94;62.04
72110;BME280;59983;52.010;5.420;2024-01-06T07:05:54;100778.69;;;17.93;61.90
72110;BME280;59983;52.010;5.420;2024-01-06T07:08:21;100780.66;;;17.92;61.86
72110;BME280;59983;52.010;5.420;2024-01-06T07:10:47;100792.03;;;17.91;61.55
72110;BME280;59983;52.010;5.420;2024-01-06T07:13:14;100792.03;;;17.91;61.81
72110;BME280;59983;52.010;5.420;2024-01-06T07:15:40;100789.28;;;17.91;61.68
72110;BME280;59983;52.010;5.420;2024-01-06T07:18:07;100798.31;;;17.91;61.58
72110;BME280;59983;52.010;5.420;2024-01-06T07:20:34;100805.75;;;17.91;61.61
72110;BME280;59983;52.010;5.420;2024-01-06T07:23:01;100810.47;;;17.90;61.83
72110;BME280;59983;52.010;5.420;2024-01-06T07:25:29;100814.00;;;17.91;61.52
72110;BME280;59983;52.010;5.420;2024-01-06T07:27:57;100814.00;;;17.91;61.80
72110;BME280;59983;52.010;5.420;2024-01-06T07:30:24;100812.41;;;17.90;61.81
72110;BME280;59983;52.010;5.420;2024-01-06T07:32:51;100819.88;;;17.89;61.75
72110;BME280;59983;52.010;5.420;2024-01-06T07:35:18;100819.09;;;17.89;61.87
72110;BME280;59983;52.010;5.420;2024-01-06T07:37:45;100826.53;;;17.88;61.69
72110;BME280;59983;52.010;5.420;2024-01-06T07:40:12;100835.56;;;17.89;61.78
72110;BME280;59983;52.010;5.420;2024-01-06T07:42:43;100833.22;;;17.87;62.24
72110;BME280;59983;52.010;5.420;2024-01-06T07:45:10;100837.53;;;17.88;62.20
72110;BME280;59983;52.010;5.420;2024-01-06T07:47:37;100850.06;;;17.89;62.20
72110;BME280;59983;52.010;5.420;2024-01-06T07:50:05;100856.34;;;17.90;62.32
72110;BME280;59983;52.010;5.420;2024-01-06T07:52:32;100854.38;;;17.90;62.04
72110;BME280;59983;52.010;5.420;2024-01-06T07:54:59;100863.78;;;17.89;62.03
72110;BME280;59983;52.010;5.420;2024-01-06T07:57:26;100857.13;;;17.87;62.42
72110;BME280;59983;52.010;5.420;2024-01-06T07:59:52;100869.28;;;17.89;62.28
72110;BME280;59983;52.010;5.420;2024-01-06T08:02:19;100862.22;;;17.88;62.38
72110;BME280;59983;52.010;5.420;2024-01-06T08:04:45;100866.94;;;17.88;62.13
72110;BME280;59983;52.010;5.420;2024-01-06T08:07:12;100870.06;;;17.86;62.36
72110;BME280;59983;52.010;5.420;2024-01-06T08:09:40;100880.66;;;17.88;62.51
72110;BME280;59983;52.010;5.420;2024-01-06T08:12:07;100875.56;;;17.86;62.03
72110;BME280;59983;52.010;5.420;2024-01-06T08:14:34;100879.88;;;17.87;62.32
72110;BME280;59983;52.010;5.420;2024-01-06T08:17:00;100887.31;;;17.87;62.37
72110;BME280;59983;52.010;5.420;2024-01-06T08:19:27;100884.56;;;17.87;62.53
72110;BME280;59983;52.010;5.420;2024-01-06T08:21:56;100884.56;;;17.87;62.29
72110;BME280;59983;52.010;5.420;2024-01-06T08:24:23;100890.47;;;17.85;62.70
72110;BME280;59983;52.010;5.420;2024-01-06T08:26:49;100893.97;;;17.86;62.92
72110;BME280;59983;52.010;5.420;2024-01-06T08:29:16;100899.84;;;17.88;63.07
72110;BME280;59983;52.010;5.420;2024-01-06T08:31:45;100908.88;;;17.88;63.03
72110;BME280;59983;52.010;5.420;2024-01-06T08:34:12;100919.06;;;17.88;63.15
72110;BME280;59983;52.010;5.420;2024-01-06T08:36:41;100918.66;;;17.89;63.25
72110;BME280;59983;52.010;5.420;2024-01-06T08:39:07;100926.50;;;17.91;63.11
72110;BME280;59983;52.010;5.420;2024-01-06T08:41:35;100926.50;;;17.91;63.22
72110;BME280;59983;52.010;5.420;2024-01-06T08:44:01;100933.56;;;17.92;63.11
72110;BME280;59983;52.010;5.420;2024-01-06T08:46:28;100930.44;;;17.90;63.23
72110;BME280;59983;52.010;5.420;2024-01-06T08:48:54;100945.72;;;17.91;62.99
72110;BME280;59983;52.010;5.420;2024-01-06T08:51:21;100944.53;;;17.88;62.65
72110;BME280;59983;52.010;5.420;2024-01-06T08:53:48;100954.34;;;17.89;62.97
72110;BME280;59983;52.010;5.420;2024-01-06T08:56:14;100953.97;;;17.87;62.87
72110;BME280;59983;52.010;5.420;2024-01-06T08:58:42;100962.19;;;17.87;62.60
72110;BME280;59983;52.010;5.420;2024-01-06T09:01:09;100967.69;;;17.87;62.93
72110;BME280;59983;52.010;5.420;2024-01-06T09:03:36;100975.13;;;17.87;62.73
72110;BME280;59983;52.010;5.420;2024-01-06T09:06:02;100974.34;;;17.86;62.66
72110;BME280;59983;52.010;5.420;2024-01-06T09:08:30;100979.41;;;17.84;62.70
72110;BME280;59983;52.010;5.420;2024-01-06T09:10:57;100982.97;;;17.85;62.73
72110;BME280;59983;52.010;5.420;2024-01-06T09:13:24;100984.91;;;17.84;62.66
72110;BME280;59983;52.010;5.420;2024-01-06T09:15:51;100988.84;;;17.83;62.83
72110;BME280;59983;52.010;5.420;2024-01-06T09:18:18;100991.56;;;17.83;62.61
72110;BME280;59983;52.010;5.420;2024-01-06T09:20:45;100990.78;;;17.82;62.44
72110;BME280;59983;52.010;5.420;2024-01-06T09:23:15;100996.69;;;17.81;62.86
72110;BME280;59983;52.010;5.420;2024-01-06T09:25:41;100997.84;;;17.80;62.85
72110;BME280;59983;52.010;5.420;2024-01-06T09:28:08;101002.16;;;17.81;62.96
72110;BME280;59983;52.010;5.420;2024-01-06T09:30:34;101003.72;;;17.82;62.67
72110;BME280;59983;52.010;5.420;2024-01-06T09:33:01;101011.97;;;17.82;62.62
72110;BME280;59983;52.010;5.420;2024-01-06T09:35:28;101011.19;;;17.81;62.69
72110;BME280;59983;52.010;5.420;2024-01-06T09:37:54;101016.28;;;17.79;62.65
72110;BME280;59983;52.010;5.420;2024-01-06T09:40:23;101020.97;;;17.79;62.69
72110;BME280;59983;52.010;5.420;2024-01-06T09:42:51;101020.19;;;17.78;62.74
72110;BME280;59983;52.010;5.420;2024-01-06T09:45:18;101029.22;;;17.79;62.80
72110;BME280;59983;52.010;5.420;2024-01-06T09:47:49;101027.25;;;17.79;62.73
72110;BME280;59983;52.010;5.420;2024-01-06T09:50:19;101035.47;;;17.83;63.00
72110;BME280;59983;52.010;5.420;2024-01-06T09:52:48;101038.25;;;17.87;62.74
72110;BME280;59983;52.010;5.420;2024-01-06T09:55:26;101038.63;;;17.92;62.59
72110;BME280;59983;52.010;5.420;2024-01-06T09:57:53;101039.44;;;18.00;62.40
72110;BME280;59983;52.010;5.420;2024-01-06T10:00:21;101046.91;;;18.06;62.31
72110;BME280;59983;52.010;5.420;2024-01-06T10:02:48;101047.69;;;18.18;61.93
72110;BME280;59983;52.010;5.420;2024-01-06T10:05:15;101050.44;;;18.25;61.53
72110;BME280;59983;52.010;5.420;2024-01-06T10:07:46;101055.13;;;18.35;61.23
72110;BME280;59983;52.010;5.420;2024-01-06T10:10:14;101064.16;;;18.43;61.01
72110;BME280;59983;52.010;5.420;2024-01-06T10:12:42;101064.94;;;18.54;60.68
72110;BME280;59983;52.010;5.420;2024-01-06T10:15:10;101075.53;;;18.62;60.15
72110;BME280;59983;52.010;5.420;2024-01-06T10:17:40;101070.84;;;18.70;59.83
72110;BME280;59983;52.010;5.420;2024-01-06T10:20:11;101072.00;;;18.80;59.71
72110;BME280;59983;52.010;5.420;2024-01-06T10:22:40;101075.53;;;18.87;59.47
72110;BME280;59983;52.010;5.420;2024-01-06T10:25:09;101080.63;;;18.96;59.28
72110;BME280;59983;52.010;5.420;2024-01-06T10:27:37;101082.16;;;19.04;59.05
72110;BME280;59983;52.010;5.420;2024-01-06T10:30:06;101087.66;;;19.11;58.86
72110;BME280;59983;52.010;5.420;2024-01-06T10:32:34;101087.25;;;19.20;58.78
72110;BME280;59983;52.010;5.420;2024-01-06T10:35:01;101090.34;;;19.25;58.53
72110;BME280;59983;52.010;5.420;2024-01-06T10:37:28;101091.13;;;19.33;58.22
72110;BME280;59983;52.010;5.420;2024-01-06T10:40:12;101090.69;;;19.42;58.43
72110;BME280;59983;52.010;5.420;2024-01-06T10:42:40;101097.34;;;19.48;58.20
72110;BME280;59983;52.010;5.420;2024-01-06T10:45:10;101090.25;;;19.54;57.93
72110;BME280;59983;52.010;5.420;2024-01-06T10:47:38;101086.31;;;19.59;57.88
72110;BME280;59983;52.010;5.420;2024-01-06T10:50:06;101097.31;;;19.66;57.60
72110;BME280;59983;52.010;5.420;2024-01-06T10:52:34;101093.75;;;19.69;57.27
72110;BME280;59983;52.010;5.420;2024-01-06T10:55:02;101094.53;;;19.73;57.34
72110;BME280;59983;52.010;5.420;2024-01-06T10:57:29;101099.63;;;19.74;57.50
72110;BME280;59983;52.010;5.420;2024-01-06T10:59:59;101096.06;;;19.77;57.49
72110;BME280;59983;52.010;5.420;2024-01-06T11:02:27;101102.75;;;19.76;57.55
72110;BME280;59983;52.010;5.420;2024-01-06T11:04:53;101100.78;;;19.77;57.64
72110;BME280;59983;52.010;5.420;2024-01-06T11:07:22;101106.28;;;19.77;57.69
72110;BME280;59983;52.010;5.420;2024-01-06T11:10:14;101110.22;;;19.76;58.10
72110;BME280;59983;52.010;5.420;2024-01-06T11:12:44;101112.22;;;19.72;58.38
72110;BME280;59983;52.010;5.420;2024-01-06T11:15:44;101119.69;;;19.71;58.45
72110;BME280;59983;52.010;5.420;2024-01-06T11:18:34;101126.41;;;19.70;58.41
72110;BME280;59983;52.010;5.420;2024-01-06T11:23:40;101124.41;;;19.71;58.54
72110;BME280;59983;52.010;5.420;2024-01-06T11:26:07;101118.50;;;19.69;58.70
72110;BME280;59983;52.010;5.420;2024-01-06T11:28:47;101125.56;;;19.70;58.79
72110;BME280;59983;52.010;5.420;2024-01-06T11:31:14;101118.91;;;19.67;58.93
72110;BME280;59983;52.010;5.420;2024-01-06T11:33:44;101130.31;;;19.69;58.74
72110;BME280;59983;52.010;5.420;2024-01-06T11:36:11;101120.47;;;19.68;58.73
72110;BME280;59983;52.010;5.420;2024-01-06T11:38:38;101122.81;;;19.70;58.99
72110;BME280;59983;52.010;5.420;2024-01-06T11:41:10;101126.00;;;19.68;58.93
72110;BME280;59983;52.010;5.420;2024-01-06T11:43:38;101118.50;;;19.69;58.96
72110;BME280;59983;52.010;5.420;2024-01-06T11:46:06;101122.03;;;19.69;59.04
72110;BME280;59983;52.010;5.420;2024-01-06T11:48:36;101120.06;;;19.70;59.14
72110;BME280;59983;52.010;5.420;2024-01-06T11:51:03;101118.91;;;19.71;59.13
72110;BME280;59983;52.010;5.420;2024-01-06T11:53:31;101123.22;;;19.68;59.28
72110;BME280;59983;52.010;5.420;2024-01-06T11:55:59;101126.41;;;19.70;59.06
72110;BME280;59983;52.010;5.420;2024-01-06T11:58:26;101122.81;;;19.70;59.25
72110;BME280;59983;52.010;5.420;2024-01-06T12:00:56;101128.75;;;19.68;59.44
72110;BME280;59983;52.010;5.420;2024-01-06T12:03:24;101128.75;;;19.68;59.39
72110;BME280;59983;52.010;5.420;2024-01-06T12:06:00;101125.59;;;19.66;59.36
72110;BME280;59983;52.010;5.420;2024-01-06T12:08:28;101132.72;;;19.64;59.44
72110;BME280;59983;52.010;5.420;2024-01-06T12:11:02;101132.31;;;19.65;59.45
72110;BME280;59983;52.010;5.420;2024-01-06T12:13:29;101127.59;;;19.62;59.44
72110;BME280;59983;52.010;5.420;2024-01-06T12:15:56;101122.47;;;19.61;59.75
72110;BME280;59983;52.010;5.420;2024-01-06T12:18:25;101133.47;;;19.61;59.57
72110;BME280;59983;52.010;5.420;2024-01-06T12:20:52;101126.81;;;19.58;59.52
72110;BME280;59983;52.010;5.420;2024-01-06T12:23:26;101138.22;;;19.57;59.62
72110;BME280;59983;52.010;5.420;2024-01-06T12:25:55;101140.97;;;19.53;59.80
72110;BME280;59983;52.010;5.420;2024-01-06T12:28:22;101131.94;;;19.52;59.98
72110;BME280;59983;52.010;5.420;2024-01-06T12:30:49;101138.59;;;19.51;60.07
72110;BME280;59983;52.010;5.420;2024-01-06T12:33:15;101133.50;;;19.50;60.03
72110;BME280;59983;52.010;5.420;2024-01-06T12:35:42;101131.56;;;19.47;60.29
72110;BME280;59983;52.010;5.420;2024-01-06T12:38:09;101134.31;;;19.47;60.27
72110;BME280;59983;52.010;5.420;2024-01-06T12:40:36;101138.66;;;19.44;60.29
72110;BME280;59983;52.010;5.420;2024-01-06T12:43:06;101143.75;;;19.42;60.33
72110;BME280;59983;52.010;5.420;2024-01-06T12:45:33;101146.91;;;19.41;60.01
72110;BME280;59983;52.010;5.420;2024-01-06T12:48:00;101146.13;;;19.37;60.23
72110;BME280;59983;52.010;5.420;2024-01-06T12:50:27;101147.31;;;19.36;60.18
72110;BME280;59983;52.010;5.420;2024-01-06T12:52:54;101137.88;;;19.33;60.22